sensor_id;sensor_type;location;lat;lon;timestamp;P1;durP1;ratioP1;P2;durP2;ratioP2
15498;SDS011;7851;52.260;6.030;2023-02-02T00:03:00;11.5;;;3.6;;
15498;SDS011;7851;52.260;6.030;2023-02-02T00:03:00;15.7;;;4.3;;
15498;SDS011;7851;52.260;6.030;2023-02-02T00:03:10;10.9;;;3.9;;
15498;SDS011;7851;52.260;6.030;2023-02-02T00:04:13;20.2;;;4.3;;
15498;SDS011;7851;52.260;6.030;2023-02-02T00:05:10;14.8;;;4.3;;
15498;SDS011;7851;52.260;6.030;2023-02-02T00:06:18;12.8;;;4.3;;
15498;SDS011;7851;52.260;6.030;2023-02-02T00:07:14;13.8;;;4.4;;
15498;SDS011;7851;52.260;6.030;2023-02-02T00:08:17;11;;;3.8;;
15498;SDS011;7851;52.260;6.030;2023-02-02T00:09:11;14.4;;;4.3;;
15498;SDS011;7851;52.260;6.030;2023-02-02T00:10:10;11.3;;;4.1;;
15498;SDS011;7851;52.260;6.030;2023-02-02T00:11:10;14.5;;;4.3;;
15498;SDS011;7851;52.260;6.030;2023-02-02T00:12:10;11.3;;;3.9;;
15498;SDS011;7851;52.260;6.030;2023-02-02T00:13:11;18;;;4.4;;
15498;SDS011;7851;52.260;6.030;2023-02-02T00:14:10;13.1;;;4.1;;
15498;SDS011;7851;52.260;6.030;2023-02-02T00:15:21;15.7;;;4;;
15498;SDS011;7851;52.260;6.030;2023-02-02T00:17:10;14.5;;;3.8;;
15498;SDS011;7851;52.260;6.030;2023-02-02T00:18:17;14.5;;;4.1;;
15498;SDS011;7851;52.260;6.030;2023-02-02T00:19:12;13;;;4.1;;
15498;SDS011;7851;52.260;6.030;2023-02-02T00:20:10;15.4;;;4.4;;
15498;SDS011;7851;52.260;6.030;2023-02-02T00:21:10;11.3;;;4;;
15498;SDS011;7851;52.260;6.030;2023-02-02T00:22:12;16.4;;;4.6;;
15498;SDS011;7851;52.260;6.030;2023-02-02T00:23:10;14.6;;;4.3;;
15498;SDS011;7851;52.260;6.030;2023-02-02T00:24:11;14.3;;;4.2;;
15498;SDS011;7851;52.260;6.030;2023-02-02T00:25:10;13;;;4.3;;
15498;SDS011;7851;52.260;6.030;2023-02-02T00:26:10;11.6;;;4;;
15498;SDS011;7851;52.260;6.030;2023-02-02T00:27:10;11.7;;;4;;
15498;SDS011;7851;52.260;6.030;2023-02-02T00:28:10;14.1;;;3.8;;
15498;SDS011;7851;52.260;6.030;2023-02-02T00:29:13;11.2;;;3.8;;
15498;SDS011;7851;52.260;6.030;2023-02-02T00:30:11;10.2;;;3.7;;
15498;SDS011;7851;52.260;6.030;2023-02-02T00:31:10;12.3;;;4.4;;
15498;SDS011;7851;52.260;6.030;2023-02-02T00:32:10;12.5;;;3.9;;
15498;SDS011;7851;52.260;6.030;2023-02-02T00:33:10;14;;;4.2;;
15498;SDS011;7851;52.260;6.030;2023-02-02T00:34:11;16.9;;;3.8;;
15498;SDS011;7851;52.260;6.030;2023-02-02T00:35:10;10.5;;;3.9;;
15498;SDS011;7851;52.260;6.030;2023-02-02T00:36:10;8.9;;;3.8;;
15498;SDS011;7851;52.260;6.030;2023-02-02T00:37:10;16.2;;;4.2;;
15498;SDS011;7851;52.260;6.030;2023-02-02T00:38:10;13.9;;;4;;
15498;SDS011;7851;52.260;6.030;2023-02-02T00:39:11;11.5;;;4.3;;
15498;SDS011;7851;52.260;6.030;2023-02-02T00:40:10;14.4;;;4.2;;
15498;SDS011;7851;52.260;6.030;2023-02-02T00:41:10;12.6;;;4.2;;
15498;SDS011;7851;52.260;6.030;2023-02-02T00:42:10;11.8;;;4.1;;
15498;SDS011;7851;52.260;6.030;2023-02-02T00:43:10;15.8;;;4.2;;
15498;SDS011;7851;52.260;6.030;2023-02-02T00:44:10;13.9;;;4.1;;
15498;SDS011;7851;52.260;6.030;2023-02-02T00:45:12;20;;;5.1;;
15498;SDS011;7851;52.260;6.030;2023-02-02T00:46:12;9.8;;;4.1;;
15498;SDS011;7851;52.260;6.030;2023-02-02T00:47:10;12.9;;;4.2;;
15498;SDS011;7851;52.260;6.030;2023-02-02T00:48:10;23.4;;;4.8;;
15498;SDS011;7851;52.260;6.030;2023-02-02T00:49:10;12;;;4.2;;
15498;SDS011;7851;52.260;6.030;2023-02-02T00:50:11;12.1;;;3.8;;
15498;SDS011;7851;52.260;6.030;2023-02-02T00:51:10;14.3;;;4.2;;
15498;SDS011;7851;52.260;6.030;2023-02-02T00:52:10;15.8;;;4.6;;
15498;SDS011;7851;52.260;6.030;2023-02-02T00:53:10;9.8;;;3.8;;
15498;SDS011;7851;52.260;6.030;2023-02-02T00:54:10;12.9;;;4;;
15498;SDS011;7851;52.260;6.030;2023-02-02T00:55:10;13.4;;;4.2;;
15498;SDS011;7851;52.260;6.030;2023-02-02T00:56:10;14.1;;;4.6;;
15498;SDS011;7851;52.260;6.030;2023-02-02T00:57:11;15.9;;;4.3;;
15498;SDS011;7851;52.260;6.030;2023-02-02T00:58:10;10.2;;;3.8;;
15498;SDS011;7851;52.260;6.030;2023-02-02T00:59:10;19.1;;;4.3;;
15498;SDS011;7851;52.260;6.030;2023-02-02T01:00:11;13.2;;;4;;
15498;SDS011;7851;52.260;6.030;2023-02-02T01:01:13;14.6;;;4.3;;
15498;SDS011;7851;52.260;6.030;2023-02-02T01:02:11;14.3;;;4.4;;
15498;SDS011;7851;52.260;6.030;2023-02-02T01:03:10;12.7;;;4;;
15498;SDS011;7851;52.260;6.030;2023-02-02T01:04:10;15;;;4.2;;
15498;SDS011;7851;52.260;6.030;2023-02-02T01:05:10;10.8;;;4;;
15498;SDS011;7851;52.260;6.030;2023-02-02T01:06:10;13.7;;;4.4;;
15498;SDS011;7851;52.260;6.030;2023-02-02T01:07:10;14.6;;;4.5;;
15498;SDS011;7851;52.260;6.030;2023-02-02T01:08:10;13.9;;;4.5;;
15498;SDS011;7851;52.260;6.030;2023-02-02T01:09:10;13.9;;;3.9;;
15498;SDS011;7851;52.260;6.030;2023-02-02T01:10:12;16.4;;;4.4;;
15498;SDS011;7851;52.260;6.030;2023-02-02T01:11:10;15.3;;;4.2;;
15498;SDS011;7851;52.260;6.030;2023-02-02T01:12:10;14.9;;;4.6;;
15498;SDS011;7851;52.260;6.030;2023-02-02T01:13:10;13.1;;;4;;
15498;SDS011;7851;52.260;6.030;2023-02-02T01:14:10;13;;;4.4;;
15498;SDS011;7851;52.260;6.030;2023-02-02T01:15:11;15.5;;;4.3;;
15498;SDS011;7851;52.260;6.030;2023-02-02T01:16:10;8.2;;;3.7;;
15498;SDS011;7851;52.260;6.030;2023-02-02T01:17:10;10.4;;;3.7;;
15498;SDS011;7851;52.260;6.030;2023-02-02T01:18:13;14;;;4.3;;
15498;SDS011;7851;52.260;6.030;2023-02-02T01:19:11;12.4;;;3.9;;
15498;SDS011;7851;52.260;6.030;2023-02-02T01:20:14;12;;;4.5;;
15498;SDS011;7851;52.260;6.030;2023-02-02T01:21:11;10.7;;;3.8;;
15498;SDS011;7851;52.260;6.030;2023-02-02T01:22:10;12.2;;;4.2;;
15498;SDS011;7851;52.260;6.030;2023-02-02T01:23:10;11.8;;;3.9;;
15498;SDS011;7851;52.260;6.030;2023-02-02T01:24:10;14.5;;;3.8;;
15498;SDS011;7851;52.260;6.030;2023-02-02T01:25:10;12.1;;;4.4;;
15498;SDS011;7851;52.260;6.030;2023-02-02T01:26:11;10.6;;;3.8;;
15498;SDS011;7851;52.260;6.030;2023-02-02T01:27:10;12;;;4.1;;
15498;SDS011;7851;52.260;6.030;2023-02-02T01:28:10;14.5;;;4.4;;
15498;SDS011;7851;52.260;6.030;2023-02-02T01:29:10;9.2;;;4;;
15498;SDS011;7851;52.260;6.030;2023-02-02T01:30:11;15.8;;;4.2;;
15498;SDS011;7851;52.260;6.030;2023-02-02T01:31:11;11.1;;;4.1;;
15498;SDS011;7851;52.260;6.030;2023-02-02T01:32:10;17.4;;;4.2;;
15498;SDS011;7851;52.260;6.030;2023-02-02T01:33:10;10.2;;;3.7;;
15498;SDS011;7851;52.260;6.030;2023-02-02T01:34:14;15.5;;;4.1;;
15498;SDS011;7851;52.260;6.030;2023-02-02T01:35:10;18.8;;;3.9;;
15498;SDS011;7851;52.260;6.030;2023-02-02T01:36:11;12.1;;;3.6;;
15498;SDS011;7851;52.260;6.030;2023-02-02T01:37:10;13.3;;;3.8;;
15498;SDS011;7851;52.260;6.030;2023-02-02T01:38:10;14.9;;;3.8;;
15498;SDS011;7851;52.260;6.030;2023-02-02T01:39:10;12.5;;;3.5;;
15498;SDS011;7851;52.260;6.030;2023-02-02T01:40:11;12.4;;;3.4;;
15498;SDS011;7851;52.260;6.030;2023-02-02T01:41:11;17.4;;;4;;
15498;SDS011;7851;52.260;6.030;2023-02-02T01:42:11;9.6;;;3.7;;
15498;SDS011;7851;52.260;6.030;2023-02-02T01:43:13;9.3;;;3.5;;
15498;SDS011;7851;52.260;6.030;2023-02-02T01:45:26;12.5;;;3.6;;
15498;SDS011;7851;52.260;6.030;2023-02-02T01:46:10;10.4;;;3.8;;
15498;SDS011;7851;52.260;6.030;2023-02-02T01:47:10;10.8;;;3.2;;
15498;SDS011;7851;52.260;6.030;2023-02-02T01:48:10;9.8;;;3.9;;
15498;SDS011;7851;52.260;6.030;2023-02-02T01:49:11;11.1;;;3.6;;
15498;SDS011;7851;52.260;6.030;2023-02-02T01:50:11;12.4;;;3.7;;
15498;SDS011;7851;52.260;6.030;2023-02-02T01:51:12;12.4;;;3.6;;
15498;SDS011;7851;52.260;6.030;2023-02-02T01:52:10;12.5;;;4.4;;
15498;SDS011;7851;52.260;6.030;2023-02-02T01:53:10;10;;;3.2;;
15498;SDS011;7851;52.260;6.030;2023-02-02T01:54:12;12.5;;;3.8;;
15498;SDS011;7851;52.260;6.030;2023-02-02T01:55:11;8.6;;;3.2;;
15498;SDS011;7851;52.260;6.030;2023-02-02T01:56:11;11.3;;;3.5;;
15498;SDS011;7851;52.260;6.030;2023-02-02T01:57:11;9.7;;;3.8;;
15498;SDS011;7851;52.260;6.030;2023-02-02T01:58:12;11.3;;;3.7;;
15498;SDS011;7851;52.260;6.030;2023-02-02T01:59:13;14;;;3;;
15498;SDS011;7851;52.260;6.030;2023-02-02T02:00:12;10.8;;;3.8;;
15498;SDS011;7851;52.260;6.030;2023-02-02T02:01:10;9.2;;;3.4;;
15498;SDS011;7851;52.260;6.030;2023-02-02T02:02:10;16.6;;;3.9;;
15498;SDS011;7851;52.260;6.030;2023-02-02T02:03:11;7.5;;;2.9;;
15498;SDS011;7851;52.260;6.030;2023-02-02T02:04:10;10.1;;;3.4;;
15498;SDS011;7851;52.260;6.030;2023-02-02T02:05:10;5.9;;;3.2;;
15498;SDS011;7851;52.260;6.030;2023-02-02T02:06:11;11.2;;;3.6;;
15498;SDS011;7851;52.260;6.030;2023-02-02T02:07:10;12.3;;;3.7;;
15498;SDS011;7851;52.260;6.030;2023-02-02T02:08:12;9.9;;;3.7;;
15498;SDS011;7851;52.260;6.030;2023-02-02T02:09:10;10.3;;;3.4;;
15498;SDS011;7851;52.260;6.030;2023-02-02T02:10:10;9.2;;;3.5;;
15498;SDS011;7851;52.260;6.030;2023-02-02T02:11:10;12.8;;;3.6;;
15498;SDS011;7851;52.260;6.030;2023-02-02T02:12:11;11.1;;;3.5;;
15498;SDS011;7851;52.260;6.030;2023-02-02T02:13:10;13.5;;;3.2;;
15498;SDS011;7851;52.260;6.030;2023-02-02T02:14:10;8.7;;;3.4;;
15498;SDS011;7851;52.260;6.030;2023-02-02T02:15:10;7.9;;;3.6;;
15498;SDS011;7851;52.260;6.030;2023-02-02T02:16:12;11.3;;;3.4;;
15498;SDS011;7851;52.260;6.030;2023-02-02T02:17:13;12;;;3.3;;
15498;SDS011;7851;52.260;6.030;2023-02-02T02:18:15;9.3;;;3.5;;
15498;SDS011;7851;52.260;6.030;2023-02-02T02:19:14;6.5;;;2.8;;
15498;SDS011;7851;52.260;6.030;2023-02-02T02:20:18;12.1;;;3.5;;
15498;SDS011;7851;52.260;6.030;2023-02-02T02:21:22;10.6;;;3.2;;
15498;SDS011;7851;52.260;6.030;2023-02-02T02:22:11;7.9;;;3.2;;
15498;SDS011;7851;52.260;6.030;2023-02-02T02:25:19;8.4;;;3;;
15498;SDS011;7851;52.260;6.030;2023-02-02T02:26:19;11.9;;;3.5;;
15498;SDS011;7851;52.260;6.030;2023-02-02T02:27:23;11;;;3.2;;
15498;SDS011;7851;52.260;6.030;2023-02-02T02:28:16;4.9;;;2.6;;
15498;SDS011;7851;52.260;6.030;2023-02-02T02:29:17;6.3;;;3;;
15498;SDS011;7851;52.260;6.030;2023-02-02T02:30:15;7.4;;;3;;
15498;SDS011;7851;52.260;6.030;2023-02-02T02:31:15;9.2;;;3.3;;
15498;SDS011;7851;52.260;6.030;2023-02-02T02:32:13;7.3;;;3.2;;
15498;SDS011;7851;52.260;6.030;2023-02-02T02:33:10;13.9;;;3.4;;
15498;SDS011;7851;52.260;6.030;2023-02-02T02:34:12;6.8;;;2.8;;
15498;SDS011;7851;52.260;6.030;2023-02-02T02:35:11;12.1;;;3.3;;
15498;SDS011;7851;52.260;6.030;2023-02-02T02:36:13;8.9;;;3.3;;
15498;SDS011;7851;52.260;6.030;2023-02-02T02:37:10;9.5;;;3.6;;
15498;SDS011;7851;52.260;6.030;2023-02-02T02:38:12;8.3;;;3.2;;
15498;SDS011;7851;52.260;6.030;2023-02-02T02:39:11;6.6;;;2.8;;
15498;SDS011;7851;52.260;6.030;2023-02-02T02:40:16;7.2;;;2.9;;
15498;SDS011;7851;52.260;6.030;2023-02-02T02:41:11;8.6;;;3;;
15498;SDS011;7851;52.260;6.030;2023-02-02T02:42:11;7.2;;;3;;
15498;SDS011;7851;52.260;6.030;2023-02-02T02:43:11;12.6;;;3.1;;
15498;SDS011;7851;52.260;6.030;2023-02-02T02:44:11;12;;;3.1;;
15498;SDS011;7851;52.260;6.030;2023-02-02T02:45:11;4.4;;;2.5;;
15498;SDS011;7851;52.260;6.030;2023-02-02T02:46:10;4.9;;;2.7;;
15498;SDS011;7851;52.260;6.030;2023-02-02T02:47:10;5.6;;;2.8;;
15498;SDS011;7851;52.260;6.030;2023-02-02T02:48:10;7.7;;;2.5;;
15498;SDS011;7851;52.260;6.030;2023-02-02T02:49:11;5.1;;;2.7;;
15498;SDS011;7851;52.260;6.030;2023-02-02T02:50:10;8.3;;;2.9;;
15498;SDS011;7851;52.260;6.030;2023-02-02T02:51:38;8;;;2.6;;
15498;SDS011;7851;52.260;6.030;2023-02-02T02:52:10;7.9;;;2.5;;
15498;SDS011;7851;52.260;6.030;2023-02-02T02:53:11;11.6;;;2.9;;
15498;SDS011;7851;52.260;6.030;2023-02-02T02:54:10;6.4;;;2.6;;
15498;SDS011;7851;52.260;6.030;2023-02-02T02:55:10;8.9;;;2.5;;
15498;SDS011;7851;52.260;6.030;2023-02-02T02:56:12;9.5;;;2.5;;
15498;SDS011;7851;52.260;6.030;2023-02-02T02:57:15;8.3;;;3;;
15498;SDS011;7851;52.260;6.030;2023-02-02T02:58:11;8.6;;;2.8;;
15498;SDS011;7851;52.260;6.030;2023-02-02T02:59:13;5.5;;;2.4;;
15498;SDS011;7851;52.260;6.030;2023-02-02T03:00:15;8.4;;;2.8;;
15498;SDS011;7851;52.260;6.030;2023-02-02T03:01:12;5.6;;;2.7;;
15498;SDS011;7851;52.260;6.030;2023-02-02T03:02:15;8.5;;;2.4;;
15498;SDS011;7851;52.260;6.030;2023-02-02T03:03:13;11.4;;;2.9;;
15498;SDS011;7851;52.260;6.030;2023-02-02T03:04:11;5;;;2.5;;
15498;SDS011;7851;52.260;6.030;2023-02-02T03:05:15;4.2;;;2.3;;
15498;SDS011;7851;52.260;6.030;2023-02-02T03:06:11;6.8;;;2.4;;
15498;SDS011;7851;52.260;6.030;2023-02-02T03:07:12;5.5;;;2.6;;
15498;SDS011;7851;52.260;6.030;2023-02-02T03:08:11;5.9;;;2.6;;
15498;SDS011;7851;52.260;6.030;2023-02-02T03:09:11;10.6;;;2.5;;
15498;SDS011;7851;52.260;6.030;2023-02-02T03:10:11;3.8;;;2.1;;
15498;SDS011;7851;52.260;6.030;2023-02-02T03:11:11;7.4;;;2.7;;
15498;SDS011;7851;52.260;6.030;2023-02-02T03:12:10;8.9;;;3;;
15498;SDS011;7851;52.260;6.030;2023-02-02T03:13:10;6.4;;;2.4;;
15498;SDS011;7851;52.260;6.030;2023-02-02T03:14:10;8.1;;;2.6;;
15498;SDS011;7851;52.260;6.030;2023-02-02T03:15:11;4.9;;;2.4;;
15498;SDS011;7851;52.260;6.030;2023-02-02T03:16:10;7;;;2.3;;
15498;SDS011;7851;52.260;6.030;2023-02-02T03:17:10;9.9;;;2.6;;
15498;SDS011;7851;52.260;6.030;2023-02-02T03:18:10;7.3;;;2.7;;
15498;SDS011;7851;52.260;6.030;2023-02-02T03:19:10;7.9;;;2.5;;
15498;SDS011;7851;52.260;6.030;2023-02-02T03:20:11;6;;;2.8;;
15498;SDS011;7851;52.260;6.030;2023-02-02T03:21:10;5.4;;;2.7;;
15498;SDS011;7851;52.260;6.030;2023-02-02T03:22:10;6.1;;;2.6;;
15498;SDS011;7851;52.260;6.030;2023-02-02T03:23:10;4.9;;;2.6;;
15498;SDS011;7851;52.260;6.030;2023-02-02T03:24:10;4.8;;;2.7;;
15498;SDS011;7851;52.260;6.030;2023-02-02T03:25:10;5.2;;;2.3;;
15498;SDS011;7851;52.260;6.030;2023-02-02T03:26:11;4.6;;;2.4;;
15498;SDS011;7851;52.260;6.030;2023-02-02T03:27:10;11.2;;;3.1;;
15498;SDS011;7851;52.260;6.030;2023-02-02T03:28:10;9.6;;;3.1;;
15498;SDS011;7851;52.260;6.030;2023-02-02T03:29:10;4.2;;;2.6;;
15498;SDS011;7851;52.260;6.030;2023-02-02T03:30:11;4.6;;;2.9;;
15498;SDS011;7851;52.260;6.030;2023-02-02T03:31:10;7.8;;;2.8;;
15498;SDS011;7851;52.260;6.030;2023-02-02T03:32:10;4.2;;;2.5;;
15498;SDS011;7851;52.260;6.030;2023-02-02T03:33:11;6.2;;;2.9;;
15498;SDS011;7851;52.260;6.030;2023-02-02T03:34:10;6.1;;;2.6;;
15498;SDS011;7851;52.260;6.030;2023-02-02T03:35:10;5.1;;;2.7;;
15498;SDS011;7851;52.260;6.030;2023-02-02T03:36:10;5.1;;;2.6;;
15498;SDS011;7851;52.260;6.030;2023-02-02T03:37:10;3.4;;;2.6;;
15498;SDS011;7851;52.260;6.030;2023-02-02T03:38:10;3.9;;;2.9;;
15498;SDS011;7851;52.260;6.030;2023-02-02T03:39:13;5.3;;;3;;
15498;SDS011;7851;52.260;6.030;2023-02-02T03:40:10;5.3;;;3;;
15498;SDS011;7851;52.260;6.030;2023-02-02T03:41:10;4.1;;;2.7;;
15498;SDS011;7851;52.260;6.030;2023-02-02T03:42:10;3.1;;;2.4;;
15498;SDS011;7851;52.260;6.030;2023-02-02T03:43:10;4.3;;;2.5;;
15498;SDS011;7851;52.260;6.030;2023-02-02T03:44:10;3.2;;;2.2;;
15498;SDS011;7851;52.260;6.030;2023-02-02T03:45:10;2.9;;;2.4;;
15498;SDS011;7851;52.260;6.030;2023-02-02T03:46:11;5.9;;;2.7;;
15498;SDS011;7851;52.260;6.030;2023-02-02T03:47:10;2.9;;;2.5;;
15498;SDS011;7851;52.260;6.030;2023-02-02T03:48:11;3.2;;;2.4;;
15498;SDS011;7851;52.260;6.030;2023-02-02T03:49:10;3.5;;;2.8;;
15498;SDS011;7851;52.260;6.030;2023-02-02T03:50:10;7.8;;;2.8;;
15498;SDS011;7851;52.260;6.030;2023-02-02T03:51:11;4;;;2.5;;
15498;SDS011;7851;52.260;6.030;2023-02-02T03:52:13;3.9;;;2.8;;
15498;SDS011;7851;52.260;6.030;2023-02-02T03:53:10;5.4;;;2.6;;
15498;SDS011;7851;52.260;6.030;2023-02-02T03:54:10;3.1;;;2.8;;
15498;SDS011;7851;52.260;6.030;2023-02-02T03:55:10;6.4;;;3.2;;
15498;SDS011;7851;52.260;6.030;2023-02-02T03:56:11;7.3;;;3.3;;
15498;SDS011;7851;52.260;6.030;2023-02-02T03:57:10;6.6;;;3.2;;
15498;SDS011;7851;52.260;6.030;2023-02-02T03:58:10;4.6;;;3.7;;
15498;SDS011;7851;52.260;6.030;2023-02-02T03:59:10;5.9;;;4.4;;
15498;SDS011;7851;52.260;6.030;2023-02-02T04:00:11;12;;;4.6;;
15498;SDS011;7851;52.260;6.030;2023-02-02T04:01:11;11.8;;;4.9;;
15498;SDS011;7851;52.260;6.030;2023-02-02T04:02:10;9.5;;;4.1;;
15498;SDS011;7851;52.260;6.030;2023-02-02T04:03:10;6.7;;;4.4;;
15498;SDS011;7851;52.260;6.030;2023-02-02T04:04:10;10;;;4.8;;
15498;SDS011;7851;52.260;6.030;2023-02-02T04:05:15;5.8;;;4.2;;
15498;SDS011;7851;52.260;6.030;2023-02-02T04:06:10;13;;;6.3;;
15498;SDS011;7851;52.260;6.030;2023-02-02T04:07:10;12.4;;;5.9;;
15498;SDS011;7851;52.260;6.030;2023-02-02T04:08:11;10.7;;;5.4;;
15498;SDS011;7851;52.260;6.030;2023-02-02T04:09:10;13;;;5.8;;
15498;SDS011;7851;52.260;6.030;2023-02-02T04:10:13;10.8;;;5.6;;
15498;SDS011;7851;52.260;6.030;2023-02-02T04:11:10;16.1;;;6.1;;
15498;SDS011;7851;52.260;6.030;2023-02-02T04:12:10;14.2;;;6.1;;
15498;SDS011;7851;52.260;6.030;2023-02-02T04:13:10;13.6;;;5.9;;
15498;SDS011;7851;52.260;6.030;2023-02-02T04:14:10;13.6;;;5.9;;
15498;SDS011;7851;52.260;6.030;2023-02-02T04:15:10;12.4;;;5.5;;
15498;SDS011;7851;52.260;6.030;2023-02-02T04:16:10;12.3;;;6;;
15498;SDS011;7851;52.260;6.030;2023-02-02T04:17:10;8.1;;;4.9;;
15498;SDS011;7851;52.260;6.030;2023-02-02T04:18:10;14.6;;;5.8;;
15498;SDS011;7851;52.260;6.030;2023-02-02T04:19:11;14.8;;;6.4;;
15498;SDS011;7851;52.260;6.030;2023-02-02T04:20:10;18.9;;;6.5;;
15498;SDS011;7851;52.260;6.030;2023-02-02T04:21:11;11.2;;;5.7;;
15498;SDS011;7851;52.260;6.030;2023-02-02T04:22:10;12.2;;;5.7;;
15498;SDS011;7851;52.260;6.030;2023-02-02T04:23:10;13;;;6.4;;
15498;SDS011;7851;52.260;6.030;2023-02-02T04:24:11;11.9;;;5.5;;
15498;SDS011;7851;52.260;6.030;2023-02-02T04:25:10;18.4;;;6.2;;
15498;SDS011;7851;52.260;6.030;2023-02-02T04:26:10;13.2;;;5.6;;
15498;SDS011;7851;52.260;6.030;2023-02-02T04:27:10;14;;;5.9;;
15498;SDS011;7851;52.260;6.030;2023-02-02T04:28:10;15.3;;;5.8;;
15498;SDS011;7851;52.260;6.030;2023-02-02T04:29:11;13.4;;;5.2;;
15498;SDS011;7851;52.260;6.030;2023-02-02T04:30:10;12.1;;;6;;
15498;SDS011;7851;52.260;6.030;2023-02-02T04:31:10;17.4;;;6;;
15498;SDS011;7851;52.260;6.030;2023-02-02T04:32:10;9.7;;;5.6;;
15498;SDS011;7851;52.260;6.030;2023-02-02T04:33:10;13.2;;;6.2;;
15498;SDS011;7851;52.260;6.030;2023-02-02T04:34:10;11.1;;;5.8;;
15498;SDS011;7851;52.260;6.030;2023-02-02T04:35:12;11;;;5.8;;
15498;SDS011;7851;52.260;6.030;2023-02-02T04:36:10;14.3;;;5.9;;
15498;SDS011;7851;52.260;6.030;2023-02-02T04:37:16;15.8;;;6.3;;
15498;SDS011;7851;52.260;6.030;2023-02-02T04:38:10;15.2;;;5.4;;
15498;SDS011;7851;52.260;6.030;2023-02-02T04:39:10;14;;;5.3;;
15498;SDS011;7851;52.260;6.030;2023-02-02T04:40:11;20.3;;;6.3;;
15498;SDS011;7851;52.260;6.030;2023-02-02T04:41:10;11.8;;;5.5;;
15498;SDS011;7851;52.260;6.030;2023-02-02T04:42:10;18.3;;;5.6;;
15498;SDS011;7851;52.260;6.030;2023-02-02T04:43:10;14.2;;;6;;
15498;SDS011;7851;52.260;6.030;2023-02-02T04:44:12;14.7;;;6.3;;
15498;SDS011;7851;52.260;6.030;2023-02-02T04:45:13;13.6;;;6.1;;
15498;SDS011;7851;52.260;6.030;2023-02-02T04:46:10;22.4;;;6.2;;
15498;SDS011;7851;52.260;6.030;2023-02-02T04:47:10;17.9;;;6.3;;
15498;SDS011;7851;52.260;6.030;2023-02-02T04:48:10;13.7;;;5.9;;
15498;SDS011;7851;52.260;6.030;2023-02-02T04:49:10;18.4;;;6.5;;
15498;SDS011;7851;52.260;6.030;2023-02-02T04:50:10;16;;;6.1;;
15498;SDS011;7851;52.260;6.030;2023-02-02T04:51:11;19.4;;;6.8;;
15498;SDS011;7851;52.260;6.030;2023-02-02T04:52:10;17.4;;;6.8;;
15498;SDS011;7851;52.260;6.030;2023-02-02T04:53:10;12.3;;;6.5;;
15498;SDS011;7851;52.260;6.030;2023-02-02T04:54:15;17.7;;;7;;
15498;SDS011;7851;52.260;6.030;2023-02-02T04:55:10;15.1;;;6.9;;
15498;SDS011;7851;52.260;6.030;2023-02-02T04:56:11;13.7;;;6.4;;
15498;SDS011;7851;52.260;6.030;2023-02-02T04:57:10;17;;;6.7;;
15498;SDS011;7851;52.260;6.030;2023-02-02T04:58:10;15.7;;;6.5;;
15498;SDS011;7851;52.260;6.030;2023-02-02T04:59:10;20.7;;;6.7;;
15498;SDS011;7851;52.260;6.030;2023-02-02T05:00:11;13.5;;;6.2;;
15498;SDS011;7851;52.260;6.030;2023-02-02T05:01:11;14.4;;;6.2;;
15498;SDS011;7851;52.260;6.030;2023-02-02T05:02:10;16.2;;;6.8;;
15498;SDS011;7851;52.260;6.030;2023-02-02T05:03:10;26.3;;;7.1;;
15498;SDS011;7851;52.260;6.030;2023-02-02T05:04:10;13.6;;;5.9;;
15498;SDS011;7851;52.260;6.030;2023-02-02T05:05:11;12.2;;;6.1;;
15498;SDS011;7851;52.260;6.030;2023-02-02T05:06:10;13;;;6;;
15498;SDS011;7851;52.260;6.030;2023-02-02T05:07:10;19.1;;;6.4;;
15498;SDS011;7851;52.260;6.030;2023-02-02T05:08:12;15;;;6.2;;
15498;SDS011;7851;52.260;6.030;2023-02-02T05:09:10;16.1;;;6.5;;
15498;SDS011;7851;52.260;6.030;2023-02-02T05:10:10;12.4;;;5.9;;
15498;SDS011;7851;52.260;6.030;2023-02-02T05:11:11;21.9;;;6.5;;
15498;SDS011;7851;52.260;6.030;2023-02-02T05:12:10;19.3;;;6.2;;
15498;SDS011;7851;52.260;6.030;2023-02-02T05:13:10;17.8;;;6.5;;
15498;SDS011;7851;52.260;6.030;2023-02-02T05:14:10;19.4;;;6.2;;
15498;SDS011;7851;52.260;6.030;2023-02-02T05:15:10;13.8;;;5.6;;
15498;SDS011;7851;52.260;6.030;2023-02-02T05:16:10;15.8;;;6.4;;
15498;SDS011;7851;52.260;6.030;2023-02-02T05:17:10;18.1;;;6.1;;
15498;SDS011;7851;52.260;6.030;2023-02-02T05:18:10;15.1;;;5.8;;
15498;SDS011;7851;52.260;6.030;2023-02-02T05:19:10;18.4;;;6.2;;
15498;SDS011;7851;52.260;6.030;2023-02-02T05:20:10;16.3;;;6.1;;
15498;SDS011;7851;52.260;6.030;2023-02-02T05:21:10;19.4;;;5.7;;
15498;SDS011;7851;52.260;6.030;2023-02-02T05:22:10;15.5;;;6.7;;
15498;SDS011;7851;52.260;6.030;2023-02-02T05:23:10;16.7;;;6.6;;
15498;SDS011;7851;52.260;6.030;2023-02-02T05:24:10;14.6;;;6.1;;
15498;SDS011;7851;52.260;6.030;2023-02-02T05:25:10;17.4;;;6;;
15498;SDS011;7851;52.260;6.030;2023-02-02T05:26:11;14.6;;;5.8;;
15498;SDS011;7851;52.260;6.030;2023-02-02T05:27:10;16.8;;;5.6;;
15498;SDS011;7851;52.260;6.030;2023-02-02T05:28:10;17.2;;;6;;
15498;SDS011;7851;52.260;6.030;2023-02-02T05:29:10;18;;;6.1;;
15498;SDS011;7851;52.260;6.030;2023-02-02T05:30:11;18.5;;;5.7;;
15498;SDS011;7851;52.260;6.030;2023-02-02T05:31:10;12.4;;;6;;
15498;SDS011;7851;52.260;6.030;2023-02-02T05:32:10;12.5;;;5.9;;
15498;SDS011;7851;52.260;6.030;2023-02-02T05:33:10;12.3;;;5.4;;
15498;SDS011;7851;52.260;6.030;2023-02-02T05:34:10;17;;;5.7;;
15498;SDS011;7851;52.260;6.030;2023-02-02T05:35:10;18.3;;;5.8;;
15498;SDS011;7851;52.260;6.030;2023-02-02T05:36:10;14.9;;;5.5;;
15498;SDS011;7851;52.260;6.030;2023-02-02T05:37:10;17.5;;;6.1;;
15498;SDS011;7851;52.260;6.030;2023-02-02T05:38:10;19.3;;;6.3;;
15498;SDS011;7851;52.260;6.030;2023-02-02T05:39:10;15.4;;;6;;
15498;SDS011;7851;52.260;6.030;2023-02-02T05:40:18;10.7;;;5.5;;
15498;SDS011;7851;52.260;6.030;2023-02-02T05:41:10;20.2;;;6;;
15498;SDS011;7851;52.260;6.030;2023-02-02T05:42:10;14.6;;;5.4;;
15498;SDS011;7851;52.260;6.030;2023-02-02T05:43:10;13;;;5.4;;
15498;SDS011;7851;52.260;6.030;2023-02-02T05:45:24;13.5;;;5.6;;
15498;SDS011;7851;52.260;6.030;2023-02-02T05:45:39;20.7;;;6.1;;
15498;SDS011;7851;52.260;6.030;2023-02-02T05:46:10;17.4;;;6.3;;
15498;SDS011;7851;52.260;6.030;2023-02-02T05:47:10;14.1;;;6.3;;
15498;SDS011;7851;52.260;6.030;2023-02-02T05:48:10;17;;;6.1;;
15498;SDS011;7851;52.260;6.030;2023-02-02T05:49:10;15.8;;;6.2;;
15498;SDS011;7851;52.260;6.030;2023-02-02T05:50:10;21.3;;;5.6;;
15498;SDS011;7851;52.260;6.030;2023-02-02T05:51:11;14.8;;;6.1;;
15498;SDS011;7851;52.260;6.030;2023-02-02T05:52:10;16.7;;;6.1;;
15498;SDS011;7851;52.260;6.030;2023-02-02T05:53:10;19.9;;;6.4;;
15498;SDS011;7851;52.260;6.030;2023-02-02T05:54:10;15.4;;;6.1;;
15498;SDS011;7851;52.260;6.030;2023-02-02T05:55:10;20.2;;;6.2;;
15498;SDS011;7851;52.260;6.030;2023-02-02T05:56:10;18.2;;;6.6;;
15498;SDS011;7851;52.260;6.030;2023-02-02T05:57:10;11.2;;;5.9;;
15498;SDS011;7851;52.260;6.030;2023-02-02T05:58:10;17.4;;;6.1;;
15498;SDS011;7851;52.260;6.030;2023-02-02T05:59:10;16.3;;;6.3;;
15498;SDS011;7851;52.260;6.030;2023-02-02T06:00:10;14.1;;;6.2;;
15498;SDS011;7851;52.260;6.030;2023-02-02T06:01:10;17.2;;;6.4;;
15498;SDS011;7851;52.260;6.030;2023-02-02T06:02:10;16;;;5.7;;
15498;SDS011;7851;52.260;6.030;2023-02-02T06:03:10;13.5;;;6.2;;
15498;SDS011;7851;52.260;6.030;2023-02-02T06:04:10;19.7;;;6.9;;
15498;SDS011;7851;52.260;6.030;2023-02-02T06:05:10;16.1;;;6.2;;
15498;SDS011;7851;52.260;6.030;2023-02-02T06:06:10;15.6;;;6.4;;
15498;SDS011;7851;52.260;6.030;2023-02-02T06:07:10;12.4;;;6.6;;
15498;SDS011;7851;52.260;6.030;2023-02-02T06:08:10;17.8;;;7;;
15498;SDS011;7851;52.260;6.030;2023-02-02T06:09:10;13.4;;;6.3;;
15498;SDS011;7851;52.260;6.030;2023-02-02T06:10:10;12;;;5.9;;
15498;SDS011;7851;52.260;6.030;2023-02-02T06:11:10;16.8;;;6.6;;
15498;SDS011;7851;52.260;6.030;2023-02-02T06:12:10;17;;;6.2;;
15498;SDS011;7851;52.260;6.030;2023-02-02T06:13:10;18.4;;;6.6;;
15498;SDS011;7851;52.260;6.030;2023-02-02T06:14:10;16.3;;;6.6;;
15498;SDS011;7851;52.260;6.030;2023-02-02T06:15:11;14.1;;;6.3;;
15498;SDS011;7851;52.260;6.030;2023-02-02T06:16:55;20.1;;;6.9;;
15498;SDS011;7851;52.260;6.030;2023-02-02T06:17:22;16.7;;;6.4;;
15498;SDS011;7851;52.260;6.030;2023-02-02T06:18:10;14.3;;;7;;
15498;SDS011;7851;52.260;6.030;2023-02-02T06:19:10;24.5;;;7;;
15498;SDS011;7851;52.260;6.030;2023-02-02T06:20:11;13.9;;;6.3;;
15498;SDS011;7851;52.260;6.030;2023-02-02T06:21:10;13.9;;;6.5;;